sensor_id;sensor_type;location;lat;lon;timestamp;P1;durP1;ratioP1;P2;durP2;ratioP2
17566;SDS011;8901;52.088;5.084;2022-08-04T00:00:26;9.15;;;8.35;;
17566;SDS011;8901;52.088;5.084;2022-08-04T00:02:58;8.60;;;7.70;;
17566;SDS011;8901;52.088;5.084;2022-08-04T00:05:38;9.63;;;8.73;;
17566;SDS011;8901;52.088;5.084;2022-08-04T00:08:15;9.35;;;8.45;;
17566;SDS011;8901;52.088;5.084;2022-08-04T00:10:51;9.68;;;8.82;;
17566;SDS011;8901;52.088;5.084;2022-08-04T00:13:21;13.10;;;8.85;;
17566;SDS011;8901;52.088;5.084;2022-08-04T00:15:50;8.75;;;8.07;;
17566;SDS011;8901;52.088;5.084;2022-08-04T00:18:17;8.30;;;7.70;;
17566;SDS011;8901;52.088;5.084;2022-08-04T00:20:51;8.02;;;7.43;;
17566;SDS011;8901;52.088;5.084;2022-08-04T00:23:24;8.48;;;7.50;;
17566;SDS011;8901;52.088;5.084;2022-08-04T00:25:53;9.40;;;7.35;;
17566;SDS011;8901;52.088;5.084;2022-08-04T00:28:21;7.97;;;7.18;;
17566;SDS011;8901;52.088;5.084;2022-08-04T00:30:50;8.60;;;7.10;;
17566;SDS011;8901;52.088;5.084;2022-08-04T00:33:18;9.90;;;6.82;;
17566;SDS011;8901;52.088;5.084;2022-08-04T00:35:45;10.93;;;6.70;;
17566;SDS011;8901;52.088;5.084;2022-08-04T00:38:14;7.25;;;6.18;;
17566;SDS011;8901;52.088;5.084;2022-08-04T00:40:48;6.97;;;6.28;;
17566;SDS011;8901;52.088;5.084;2022-08-04T00:43:27;8.40;;;7.55;;
17566;SDS011;8901;52.088;5.084;2022-08-04T00:46:01;7.03;;;6.38;;
17566;SDS011;8901;52.088;5.084;2022-08-04T00:51:46;7.68;;;6.97;;
17566;SDS011;8901;52.088;5.084;2022-08-04T00:54:23;8.35;;;7.15;;
17566;SDS011;8901;52.088;5.084;2022-08-04T00:57:02;7.20;;;6.70;;
17566;SDS011;8901;52.088;5.084;2022-08-04T00:59:49;11.07;;;6.30;;
17566;SDS011;8901;52.088;5.084;2022-08-04T01:02:24;6.70;;;5.90;;
17566;SDS011;8901;52.088;5.084;2022-08-04T01:05:00;8.45;;;6.05;;
17566;SDS011;8901;52.088;5.084;2022-08-04T01:07:36;8.88;;;6.15;;
17566;SDS011;8901;52.088;5.084;2022-08-04T01:10:30;9.77;;;6.25;;
17566;SDS011;8901;52.088;5.084;2022-08-04T01:13:13;7.03;;;6.07;;
17566;SDS011;8901;52.088;5.084;2022-08-04T01:16:04;11.75;;;6.18;;
17566;SDS011;8901;52.088;5.084;2022-08-04T01:18:33;6.70;;;6.10;;
17566;SDS011;8901;52.088;5.084;2022-08-04T01:21:37;8.02;;;6.38;;
17566;SDS011;8901;52.088;5.084;2022-08-04T01:24:29;6.70;;;5.85;;
17566;SDS011;8901;52.088;5.084;2022-08-04T01:27:17;7.82;;;6.88;;
17566;SDS011;8901;52.088;5.084;2022-08-04T01:29:54;8.45;;;6.38;;
17566;SDS011;8901;52.088;5.084;2022-08-04T01:32:24;6.85;;;4.80;;
17566;SDS011;8901;52.088;5.084;2022-08-04T01:34:58;9.20;;;4.40;;
17566;SDS011;8901;52.088;5.084;2022-08-04T01:37:36;7.65;;;5.22;;
17566;SDS011;8901;52.088;5.084;2022-08-04T01:40:12;7.70;;;5.10;;
17566;SDS011;8901;52.088;5.084;2022-08-04T01:42:40;7.88;;;4.95;;
17566;SDS011;8901;52.088;5.084;2022-08-04T01:45:11;6.93;;;4.60;;
17566;SDS011;8901;52.088;5.084;2022-08-04T01:47:39;10.32;;;5.40;;
17566;SDS011;8901;52.088;5.084;2022-08-04T01:50:08;7.85;;;3.78;;
17566;SDS011;8901;52.088;5.084;2022-08-04T01:52:37;6.30;;;4.90;;
17566;SDS011;8901;52.088;5.084;2022-08-04T01:55:07;7.80;;;5.45;;
17566;SDS011;8901;52.088;5.084;2022-08-04T01:57:36;9.05;;;6.15;;
17566;SDS011;8901;52.088;5.084;2022-08-04T02:00:08;6.30;;;5.43;;
17566;SDS011;8901;52.088;5.084;2022-08-04T02:02:37;7.40;;;4.85;;
17566;SDS011;8901;52.088;5.084;2022-08-04T02:05:04;7.68;;;4.40;;
17566;SDS011;8901;52.088;5.084;2022-08-04T02:07:45;5.63;;;3.90;;
17566;SDS011;8901;52.088;5.084;2022-08-04T02:10:22;6.97;;;3.85;;
17566;SDS011;8901;52.088;5.084;2022-08-04T02:12:55;9.98;;;3.58;;
17566;SDS011;8901;52.088;5.084;2022-08-04T02:15:38;10.48;;;4.45;;
17566;SDS011;8901;52.088;5.084;2022-08-04T02:18:19;7.80;;;4.03;;
17566;SDS011;8901;52.088;5.084;2022-08-04T02:20:50;8.15;;;3.15;;
17566;SDS011;8901;52.088;5.084;2022-08-04T02:23:25;6.80;;;3.95;;
17566;SDS011;8901;52.088;5.084;2022-08-04T02:25:55;7.70;;;4.28;;
17566;SDS011;8901;52.088;5.084;2022-08-04T02:28:29;8.55;;;3.90;;
17566;SDS011;8901;52.088;5.084;2022-08-04T02:31:03;6.22;;;4.45;;
17566;SDS011;8901;52.088;5.084;2022-08-04T02:33:41;9.23;;;3.80;;
17566;SDS011;8901;52.088;5.084;2022-08-04T02:36:10;6.28;;;3.80;;
17566;SDS011;8901;52.088;5.084;2022-08-04T02:38:53;7.35;;;4.10;;
17566;SDS011;8901;52.088;5.084;2022-08-04T02:41:21;9.05;;;4.75;;
17566;SDS011;8901;52.088;5.084;2022-08-04T02:43:51;6.57;;;3.70;;
17566;SDS011;8901;52.088;5.084;2022-08-04T02:46:21;8.30;;;3.33;;
17566;SDS011;8901;52.088;5.084;2022-08-04T02:48:51;5.35;;;3.35;;
17566;SDS011;8901;52.088;5.084;2022-08-04T02:51:21;6.75;;;3.80;;
17566;SDS011;8901;52.088;5.084;2022-08-04T02:53:51;6.60;;;3.72;;
17566;SDS011;8901;52.088;5.084;2022-08-04T02:56:23;7.50;;;4.22;;
17566;SDS011;8901;52.088;5.084;2022-08-04T02:58:52;6.70;;;3.78;;
17566;SDS011;8901;52.088;5.084;2022-08-04T03:01:23;9.27;;;4.20;;
17566;SDS011;8901;52.088;5.084;2022-08-04T03:03:55;8.50;;;4.22;;
17566;SDS011;8901;52.088;5.084;2022-08-04T03:06:41;5.72;;;3.63;;
17566;SDS011;8901;52.088;5.084;2022-08-04T03:09:45;8.23;;;3.90;;
17566;SDS011;8901;52.088;5.084;2022-08-04T03:24:39;7.28;;;5.15;;
17566;SDS011;8901;52.088;5.084;2022-08-04T03:27:40;6.22;;;3.92;;
17566;SDS011;8901;52.088;5.084;2022-08-04T03:30:34;5.75;;;3.95;;
17566;SDS011;8901;52.088;5.084;2022-08-04T03:33:13;4.95;;;3.90;;
17566;SDS011;8901;52.088;5.084;2022-08-04T03:39:13;6.20;;;3.95;;
17566;SDS011;8901;52.088;5.084;2022-08-04T03:42:25;5.75;;;2.88;;
17566;SDS011;8901;52.088;5.084;2022-08-04T03:51:26;5.88;;;4.00;;
17566;SDS011;8901;52.088;5.084;2022-08-04T03:54:40;6.32;;;3.92;;
17566;SDS011;8901;52.088;5.084;2022-08-04T03:57:30;12.23;;;4.10;;
17566;SDS011;8901;52.088;5.084;2022-08-04T04:00:26;8.55;;;3.53;;
17566;SDS011;8901;52.088;5.084;2022-08-04T04:03:13;10.60;;;4.38;;
17566;SDS011;8901;52.088;5.084;2022-08-04T04:06:11;8.70;;;4.15;;
17566;SDS011;8901;52.088;5.084;2022-08-04T04:09:10;8.55;;;3.58;;
17566;SDS011;8901;52.088;5.084;2022-08-04T04:12:02;9.40;;;4.40;;
17566;SDS011;8901;52.088;5.084;2022-08-04T04:14:43;8.43;;;4.65;;
17566;SDS011;8901;52.088;5.084;2022-08-04T04:17:29;6.97;;;4.45;;
17566;SDS011;8901;52.088;5.084;2022-08-04T04:20:22;12.95;;;4.40;;
17566;SDS011;8901;52.088;5.084;2022-08-04T04:22:56;8.80;;;3.92;;
17566;SDS011;8901;52.088;5.084;2022-08-04T04:25:35;5.90;;;3.17;;
17566;SDS011;8901;52.088;5.084;2022-08-04T04:28:27;8.60;;;3.70;;
17566;SDS011;8901;52.088;5.084;2022-08-04T04:31:06;6.15;;;3.80;;
17566;SDS011;8901;52.088;5.084;2022-08-04T04:33:51;8.65;;;4.47;;
17566;SDS011;8901;52.088;5.084;2022-08-04T04:36:31;10.02;;;4.43;;
17566;SDS011;8901;52.088;5.084;2022-08-04T04:39:07;6.50;;;3.70;;
17566;SDS011;8901;52.088;5.084;2022-08-04T04:41:51;7.93;;;4.45;;
17566;SDS011;8901;52.088;5.084;2022-08-04T04:44:48;8.90;;;4.38;;
17566;SDS011;8901;52.088;5.084;2022-08-04T04:47:26;12.35;;;4.38;;
17566;SDS011;8901;52.088;5.084;2022-08-04T04:50:02;5.40;;;3.33;;
17566;SDS011;8901;52.088;5.084;2022-08-04T04:52:36;7.22;;;3.42;;
17566;SDS011;8901;52.088;5.084;2022-08-04T04:55:09;8.23;;;4.18;;
17566;SDS011;8901;52.088;5.084;2022-08-04T04:57:42;12.38;;;4.40;;
17566;SDS011;8901;52.088;5.084;2022-08-04T05:00:11;7.65;;;3.80;;
17566;SDS011;8901;52.088;5.084;2022-08-04T05:06:06;7.75;;;3.83;;
17566;SDS011;8901;52.088;5.084;2022-08-04T05:08:50;11.48;;;4.60;;
17566;SDS011;8901;52.088;5.084;2022-08-04T05:11:40;10.88;;;4.03;;
17566;SDS011;8901;52.088;5.084;2022-08-04T05:14:38;10.02;;;4.03;;
17566;SDS011;8901;52.088;5.084;2022-08-04T05:17:11;4.70;;;3.50;;
17566;SDS011;8901;52.088;5.084;2022-08-04T05:19:44;5.75;;;3.80;;
17566;SDS011;8901;52.088;5.084;2022-08-04T05:22:19;6.80;;;4.07;;
17566;SDS011;8901;52.088;5.084;2022-08-04T05:24:52;5.80;;;3.67;;
17566;SDS011;8901;52.088;5.084;2022-08-04T05:27:27;6.97;;;4.35;;
17566;SDS011;8901;52.088;5.084;2022-08-04T05:30:02;6.43;;;4.20;;
17566;SDS011;8901;52.088;5.084;2022-08-04T05:32:31;5.82;;;4.53;;
17566;SDS011;8901;52.088;5.084;2022-08-04T05:35:07;5.78;;;4.05;;
17566;SDS011;8901;52.088;5.084;2022-08-04T05:37:37;10.40;;;4.57;;
17566;SDS011;8901;52.088;5.084;2022-08-04T05:40:06;6.90;;;3.95;;
17566;SDS011;8901;52.088;5.084;2022-08-04T05:42:36;6.15;;;4.07;;
17566;SDS011;8901;52.088;5.084;2022-08-04T05:45:07;9.15;;;3.83;;
17566;SDS011;8901;52.088;5.084;2022-08-04T05:47:37;6.60;;;3.15;;
17566;SDS011;8901;52.088;5.084;2022-08-04T05:50:05;4.70;;;2.80;;
17566;SDS011;8901;52.088;5.084;2022-08-04T05:52:33;7.47;;;3.22;;
17566;SDS011;8901;52.088;5.084;2022-08-04T05:55:02;9.73;;;3.30;;
17566;SDS011;8901;52.088;5.084;2022-08-04T05:57:31;8.57;;;3.22;;
17566;SDS011;8901;52.088;5.084;2022-08-04T05:59:59;7.40;;;3.60;;
17566;SDS011;8901;52.088;5.084;2022-08-04T06:02:32;7.50;;;3.15;;
17566;SDS011;8901;52.088;5.084;2022-08-04T06:05:00;8.18;;;2.88;;
17566;SDS011;8901;52.088;5.084;2022-08-04T06:07:29;8.50;;;2.90;;
17566;SDS011;8901;52.088;5.084;2022-08-04T06:09:56;4.97;;;2.38;;
17566;SDS011;8901;52.088;5.084;2022-08-04T06:12:25;6.47;;;3.25;;
17566;SDS011;8901;52.088;5.084;2022-08-04T06:14:57;3.90;;;2.50;;
17566;SDS011;8901;52.088;5.084;2022-08-04T06:17:29;14.75;;;2.80;;
17566;SDS011;8901;52.088;5.084;2022-08-04T06:19:58;6.65;;;2.97;;
17566;SDS011;8901;52.088;5.084;2022-08-04T06:22:28;7.32;;;2.70;;
17566;SDS011;8901;52.088;5.084;2022-08-04T06:24:55;6.25;;;2.90;;
17566;SDS011;8901;52.088;5.084;2022-08-04T06:27:25;8.35;;;2.97;;
17566;SDS011;8901;52.088;5.084;2022-08-04T06:29:55;6.65;;;2.75;;
17566;SDS011;8901;52.088;5.084;2022-08-04T06:32:24;5.68;;;2.75;;
17566;SDS011;8901;52.088;5.084;2022-08-04T06:35:02;6.82;;;2.92;;
17566;SDS011;8901;52.088;5.084;2022-08-04T06:37:31;7.50;;;2.78;;
17566;SDS011;8901;52.088;5.084;2022-08-04T06:40:02;8.05;;;3.25;;
17566;SDS011;8901;52.088;5.084;2022-08-04T06:45:41;9.23;;;2.50;;
17566;SDS011;8901;52.088;5.084;2022-08-04T06:48:11;8.13;;;2.60;;
17566;SDS011;8901;52.088;5.084;2022-08-04T06:50:41;8.60;;;2.85;;
17566;SDS011;8901;52.088;5.084;2022-08-04T06:53:10;10.25;;;3.13;;
17566;SDS011;8901;52.088;5.084;2022-08-04T06:55:38;6.15;;;2.72;;
17566;SDS011;8901;52.088;5.084;2022-08-04T06:58:07;10.27;;;3.58;;
17566;SDS011;8901;52.088;5.084;2022-08-04T07:00:36;10.15;;;3.05;;
17566;SDS011;8901;52.088;5.084;2022-08-04T07:03:05;9.88;;;3.45;;
17566;SDS011;8901;52.088;5.084;2022-08-04T07:05:33;5.93;;;2.83;;
17566;SDS011;8901;52.088;5.084;2022-08-04T07:08:02;10.82;;;3.50;;
17566;SDS011;8901;52.088;5.084;2022-08-04T07:10:29;8.23;;;2.90;;
17566;SDS011;8901;52.088;5.084;2022-08-04T07:12:56;6.00;;;2.90;;
17566;SDS011;8901;52.088;5.084;2022-08-04T07:15:25;6.85;;;2.95;;
17566;SDS011;8901;52.088;5.084;2022-08-04T07:17:53;8.80;;;3.05;;
17566;SDS011;8901;52.088;5.084;2022-08-04T07:20:23;8.88;;;2.80;;
17566;SDS011;8901;52.088;5.084;2022-08-04T07:22:51;7.85;;;2.58;;
17566;SDS011;8901;52.088;5.084;2022-08-04T07:25:20;9.15;;;2.80;;
17566;SDS011;8901;52.088;5.084;2022-08-04T07:27:47;10.70;;;3.10;;
17566;SDS011;8901;52.088;5.084;2022-08-04T07:30:14;7.65;;;2.80;;
17566;SDS011;8901;52.088;5.084;2022-08-04T07:32:42;7.20;;;2.90;;
17566;SDS011;8901;52.088;5.084;2022-08-04T07:35:10;6.45;;;2.70;;
17566;SDS011;8901;52.088;5.084;2022-08-04T07:37:38;8.48;;;2.92;;
17566;SDS011;8901;52.088;5.084;2022-08-04T07:40:06;7.40;;;2.80;;
17566;SDS011;8901;52.088;5.084;2022-08-04T07:42:34;4.88;;;2.63;;
17566;SDS011;8901;52.088;5.084;2022-08-04T07:45:02;6.45;;;2.95;;
17566;SDS011;8901;52.088;5.084;2022-08-04T07:47:29;4.85;;;2.80;;
17566;SDS011;8901;52.088;5.084;2022-08-04T07:49:56;7.88;;;2.92;;
17566;SDS011;8901;52.088;5.084;2022-08-04T07:52:23;9.80;;;3.08;;
17566;SDS011;8901;52.088;5.084;2022-08-04T07:54:51;7.10;;;2.80;;
17566;SDS011;8901;52.088;5.084;2022-08-04T07:57:21;8.73;;;3.38;;
17566;SDS011;8901;52.088;5.084;2022-08-04T07:59:49;6.93;;;2.80;;
17566;SDS011;8901;52.088;5.084;2022-08-04T08:02:17;9.85;;;2.53;;
17566;SDS011;8901;52.088;5.084;2022-08-04T08:04:45;9.65;;;3.25;;
17566;SDS011;8901;52.088;5.084;2022-08-04T08:07:12;8.15;;;2.67;;
17566;SDS011;8901;52.088;5.084;2022-08-04T08:09:39;7.35;;;3.17;;
17566;SDS011;8901;52.088;5.084;2022-08-04T08:12:07;7.63;;;2.50;;
17566;SDS011;8901;52.088;5.084;2022-08-04T08:14:36;6.53;;;2.75;;
17566;SDS011;8901;52.088;5.084;2022-08-04T08:17:05;4.95;;;2.40;;
17566;SDS011;8901;52.088;5.084;2022-08-04T08:19:33;7.57;;;2.53;;
17566;SDS011;8901;52.088;5.084;2022-08-04T08:22:01;5.25;;;2.53;;
17566;SDS011;8901;52.088;5.084;2022-08-04T08:24:29;6.95;;;2.53;;
17566;SDS011;8901;52.088;5.084;2022-08-04T08:27:00;8.50;;;2.67;;
17566;SDS011;8901;52.088;5.084;2022-08-04T08:29:29;7.28;;;2.85;;
17566;SDS011;8901;52.088;5.084;2022-08-04T08:31:58;4.20;;;2.55;;
17566;SDS011;8901;52.088;5.084;2022-08-04T08:34:27;7.20;;;2.88;;
17566;SDS011;8901;52.088;5.084;2022-08-04T08:36:57;6.55;;;2.40;;
17566;SDS011;8901;52.088;5.084;2022-08-04T08:39:29;4.63;;;2.50;;
17566;SDS011;8901;52.088;5.084;2022-08-04T08:42:14;5.78;;;2.88;;
17566;SDS011;8901;52.088;5.084;2022-08-04T08:45:14;6.03;;;2.55;;
17566;SDS011;8901;52.088;5.084;2022-08-04T08:48:05;4.20;;;2.28;;
17566;SDS011;8901;52.088;5.084;2022-08-04T08:54:03;7.15;;;3.10;;
17566;SDS011;8901;52.088;5.084;2022-08-04T08:56:46;7.72;;;3.38;;
17566;SDS011;8901;52.088;5.084;2022-08-04T08:59:31;6.45;;;2.90;;
17566;SDS011;8901;52.088;5.084;2022-08-04T09:02:15;6.55;;;2.50;;
17566;SDS011;8901;52.088;5.084;2022-08-04T09:05:06;4.00;;;2.50;;
17566;SDS011;8901;52.088;5.084;2022-08-04T09:07:56;4.65;;;3.03;;
17566;SDS011;8901;52.088;5.084;2022-08-04T09:10:33;10.18;;;3.13;;
17566;SDS011;8901;52.088;5.084;2022-08-04T09:13:07;4.97;;;3.13;;
17566;SDS011;8901;52.088;5.084;2022-08-04T09:15:40;4.35;;;3.20;;
17566;SDS011;8901;52.088;5.084;2022-08-04T09:18:13;5.28;;;3.40;;
17566;SDS011;8901;52.088;5.084;2022-08-04T09:20:46;9.10;;;3.58;;
17566;SDS011;8901;52.088;5.084;2022-08-04T09:23:19;4.80;;;4.25;;
17566;SDS011;8901;52.088;5.084;2022-08-04T09:25:56;6.15;;;4.82;;
17566;SDS011;8901;52.088;5.084;2022-08-04T09:28:28;5.57;;;4.80;;
17566;SDS011;8901;52.088;5.084;2022-08-04T09:31:02;5.20;;;4.85;;
17566;SDS011;8901;52.088;5.084;2022-08-04T09:33:39;7.28;;;6.13;;
17566;SDS011;8901;52.088;5.084;2022-08-04T09:36:14;5.72;;;5.15;;
17566;SDS011;8901;52.088;5.084;2022-08-04T09:38:57;7.80;;;4.97;;
17566;SDS011;8901;52.088;5.084;2022-08-04T09:41:32;5.30;;;4.80;;
17566;SDS011;8901;52.088;5.084;2022-08-04T09:44:07;7.03;;;6.35;;
17566;SDS011;8901;52.088;5.084;2022-08-04T09:46:44;6.63;;;5.95;;
17566;SDS011;8901;52.088;5.084;2022-08-04T09:49:18;7.50;;;5.93;;
17566;SDS011;8901;52.088;5.084;2022-08-04T09:51:54;8.02;;;7.22;;
17566;SDS011;8901;52.088;5.084;2022-08-04T09:54:30;8.95;;;8.15;;
17566;SDS011;8901;52.088;5.084;2022-08-04T09:57:10;8.70;;;7.88;;
17566;SDS011;8901;52.088;5.084;2022-08-04T09:59:42;8.88;;;8.18;;
17566;SDS011;8901;52.088;5.084;2022-08-04T10:02:13;10.05;;;8.55;;
17566;SDS011;8901;52.088;5.084;2022-08-04T10:04:43;9.68;;;8.82;;
17566;SDS011;8901;52.088;5.084;2022-08-04T10:07:17;10.45;;;9.52;;
17566;SDS011;8901;52.088;5.084;2022-08-04T10:10:08;10.02;;;9.32;;
17566;SDS011;8901;52.088;5.084;2022-08-04T10:12:47;7.78;;;7.20;;
17566;SDS011;8901;52.088;5.084;2022-08-04T10:15:33;11.45;;;10.48;;
17566;SDS011;8901;52.088;5.084;2022-08-04T10:18:10;11.82;;;11.02;;
17566;SDS011;8901;52.088;5.084;2022-08-04T10:20:50;9.68;;;8.90;;
17566;SDS011;8901;52.088;5.084;2022-08-04T10:23:26;9.20;;;8.60;;
17566;SDS011;8901;52.088;5.084;2022-08-04T10:26:05;12.38;;;11.57;;
17566;SDS011;8901;52.088;5.084;2022-08-04T10:28:42;10.18;;;9.38;;
17566;SDS011;8901;52.088;5.084;2022-08-04T10:31:18;12.02;;;10.93;;
17566;SDS011;8901;52.088;5.084;2022-08-04T10:33:50;11.82;;;10.63;;
17566;SDS011;8901;52.088;5.084;2022-08-04T10:36:25;11.68;;;10.80;;
17566;SDS011;8901;52.088;5.084;2022-08-04T10:38:56;9.65;;;8.65;;
17566;SDS011;8901;52.088;5.084;2022-08-04T10:41:31;11.10;;;10.30;;
17566;SDS011;8901;52.088;5.084;2022-08-04T10:44:11;8.82;;;7.95;;
17566;SDS011;8901;52.088;5.084;2022-08-04T10:46:48;9.45;;;8.77;;
17566;SDS011;8901;52.088;5.084;2022-08-04T10:49:21;8.20;;;7.70;;
17566;SDS011;8901;52.088;5.084;2022-08-04T10:51:49;6.38;;;5.88;;
17566;SDS011;8901;52.088;5.084;2022-08-04T10:54:21;6.03;;;5.13;;
17566;SDS011;8901;52.088;5.084;2022-08-04T10:56:56;12.10;;;11.30;;
17566;SDS011;8901;52.088;5.084;2022-08-04T10:59:32;10.98;;;10.18;;
17566;SDS011;8901;52.088;5.084;2022-08-04T11:02:07;6.53;;;6.10;;
17566;SDS011;8901;52.088;5.084;2022-08-04T11:04:45;8.38;;;7.68;;
17566;SDS011;8901;52.088;5.084;2022-08-04T11:07:15;9.63;;;8.88;;
17566;SDS011;8901;52.088;5.084;2022-08-04T11:09:42;7.72;;;7.00;;
17566;SDS011;8901;52.088;5.084;2022-08-04T11:12:13;10.10;;;9.40;;
17566;SDS011;8901;52.088;5.084;2022-08-04T11:14:45;10.75;;;10.02;;
17566;SDS011;8901;52.088;5.084;2022-08-04T11:17:19;10.32;;;9.63;;
17566;SDS011;8901;52.088;5.084;2022-08-04T11:19:51;13.57;;;12.38;;
17566;SDS011;8901;52.088;5.084;2022-08-04T11:22:28;15.25;;;14.15;;
17566;SDS011;8901;52.088;5.084;2022-08-04T11:24:59;10.75;;;9.10;;
17566;SDS011;8901;52.088;5.084;2022-08-04T11:27:36;11.55;;;10.95;;
17566;SDS011;8901;52.088;5.084;2022-08-04T11:30:10;15.93;;;14.82;;
17566;SDS011;8901;52.088;5.084;2022-08-04T11:32:41;16.48;;;15.32;;
17566;SDS011;8901;52.088;5.084;2022-08-04T11:35:13;15.50;;;14.32;;
17566;SDS011;8901;52.088;5.084;2022-08-04T11:37:48;15.38;;;14.30;;
17566;SDS011;8901;52.088;5.084;2022-08-04T11:40:26;15.52;;;14.43;;
17566;SDS011;8901;52.088;5.084;2022-08-04T11:43:03;13.80;;;12.93;;
17566;SDS011;8901;52.088;5.084;2022-08-04T11:45:35;15.00;;;13.73;;
17566;SDS011;8901;52.088;5.084;2022-08-04T11:48:06;15.27;;;14.18;;
17566;SDS011;8901;52.088;5.084;2022-08-04T11:50:38;15.35;;;14.27;;
17566;SDS011;8901;52.088;5.084;2022-08-04T11:53:09;15.60;;;14.52;;
17566;SDS011;8901;52.088;5.084;2022-08-04T11:55:43;14.35;;;13.38;;
17566;SDS011;8901;52.088;5.084;2022-08-04T11:58:15;15.50;;;14.38;;
17566;SDS011;8901;52.088;5.084;2022-08-04T12:00:45;15.40;;;14.27;;
17566;SDS011;8901;52.088;5.084;2022-08-04T12:03:26;14.55;;;13.65;;
17566;SDS011;8901;52.088;5.084;2022-08-04T12:06:05;16.63;;;15.45;;
17566;SDS011;8901;52.088;5.084;2022-08-04T12:08:59;14.80;;;13.80;;
17566;SDS011;8901;52.088;5.084;2022-08-04T12:11:45;15.57;;;14.45;;
17566;SDS011;8901;52.088;5.084;2022-08-04T12:14:24;15.02;;;13.90;;
17566;SDS011;8901;52.088;5.084;2022-08-04T12:16:58;16.05;;;14.93;;
17566;SDS011;8901;52.088;5.084;2022-08-04T12:19:28;16.05;;;14.98;;
17566;SDS011;8901;52.088;5.084;2022-08-04T12:21:58;18.08;;;16.73;;
17566;SDS011;8901;52.088;5.084;2022-08-04T12:24:30;17.65;;;16.33;;
17566;SDS011;8901;52.088;5.084;2022-08-04T12:27:03;17.85;;;16.48;;
17566;SDS011;8901;52.088;5.084;2022-08-04T12:29:39;18.63;;;17.23;;
17566;SDS011;8901;52.088;5.084;2022-08-04T12:32:12;18.45;;;17.05;;
17566;SDS011;8901;52.088;5.084;2022-08-04T12:34:46;18.10;;;16.63;;
17566;SDS011;8901;52.088;5.084;2022-08-04T12:37:22;16.90;;;15.73;;
17566;SDS011;8901;52.088;5.084;2022-08-04T12:40:00;16.00;;;15.05;;
17566;SDS011;8901;52.088;5.084;2022-08-04T12:42:32;17.33;;;16.23;;
17566;SDS011;8901;52.088;5.084;2022-08-04T12:45:09;18.00;;;16.77;;
17566;SDS011;8901;52.088;5.084;2022-08-04T12:47:39;18.00;;;16.70;;
17566;SDS011;8901;52.088;5.084;2022-08-04T12:50:07;18.10;;;16.77;;
17566;SDS011;8901;52.088;5.084;2022-08-04T12:52:40;16.50;;;15.45;;
17566;SDS011;8901;52.088;5.084;2022-08-04T12:55:08;17.88;;;16.67;;
17566;SDS011;8901;52.088;5.084;2022-08-04T12:57:36;18.85;;;17.65;;
17566;SDS011;8901;52.088;5.084;2022-08-04T13:03:29;18.95;;;17.58;;
17566;SDS011;8901;52.088;5.084;2022-08-04T13:06:02;18.60;;;17.40;;
17566;SDS011;8901;52.088;5.084;2022-08-04T13:08:31;18.30;;;17.20;;
17566;SDS011;8901;52.088;5.084;2022-08-04T13:11:00;20.20;;;18.90;;
17566;SDS011;8901;52.088;5.084;2022-08-04T13:13:30;19.60;;;18.30;;
17566;SDS011;8901;52.088;5.084;2022-08-04T13:16:00;19.48;;;18.27;;
17566;SDS011;8901;52.088;5.084;2022-08-04T13:18:32;21.00;;;19.30;;
17566;SDS011;8901;52.088;5.084;2022-08-04T13:21:07;20.10;;;18.90;;
17566;SDS011;8901;52.088;5.084;2022-08-04T13:23:36;19.90;;;18.60;;
17566;SDS011;8901;52.088;5.084;2022-08-04T13:26:04;19.35;;;18.00;;
17566;SDS011;8901;52.088;5.084;2022-08-04T13:28:32;20.05;;;18.80;;
17566;SDS011;8901;52.088;5.084;2022-08-04T13:31:00;21.08;;;19.55;;
17566;SDS011;8901;52.088;5.084;2022-08-04T13:33:43;20.50;;;19.30;;
17566;SDS011;8901;52.088;5.084;2022-08-04T13:36:11;19.60;;;18.25;;
17566;SDS011;8901;52.088;5.084;2022-08-04T13:38:43;19.90;;;18.40;;
17566;SDS011;8901;52.088;5.084;2022-08-04T13:41:15;20.10;;;18.60;;
17566;SDS011;8901;52.088;5.084;2022-08-04T13:43:44;20.70;;;19.27;;
17566;SDS011;8901;52.088;5.084;2022-08-04T13:46:14;20.55;;;19.30;;
17566;SDS011;8901;52.088;5.084;2022-08-04T13:48:47;20.20;;;19.00;;
17566;SDS011;8901;52.088;5.084;2022-08-04T13:51:17;20.52;;;19.23;;
17566;SDS011;8901;52.088;5.084;2022-08-04T13:53:53;20.50;;;19.23;;
17566;SDS011;8901;52.088;5.084;2022-08-04T13:56:21;20.63;;;19.23;;
17566;SDS011;8901;52.088;5.084;2022-08-04T13:58:56;20.00;;;18.70;;
17566;SDS011;8901;52.088;5.084;2022-08-04T14:01:25;20.25;;;18.95;;
17566;SDS011;8901;52.088;5.084;2022-08-04T14:03:59;20.20;;;19.00;;
17566;SDS011;8901;52.088;5.084;2022-08-04T14:06:29;19.90;;;18.48;;
17566;SDS011;8901;52.088;5.084;2022-08-04T14:09:01;20.17;;;18.88;;
17566;SDS011;8901;52.088;5.084;2022-08-04T14:11:37;20.13;;;18.77;;
17566;SDS011;8901;52.088;5.084;2022-08-04T14:14:12;19.88;;;18.63;;
17566;SDS011;8901;52.088;5.084;2022-08-04T14:16:57;19.48;;;18.17;;
17566;SDS011;8901;52.088;5.084;2022-08-04T14:19:29;21.23;;;19.73;;
17566;SDS011;8901;52.088;5.084;2022-08-04T14:22:26;18.70;;;17.50;;
17566;SDS011;8901;52.088;5.084;2022-08-04T14:24:59;20.45;;;19.10;;
17566;SDS011;8901;52.088;5.084;2022-08-04T14:27:39;19.42;;;18.10;;
17566;SDS011;8901;52.088;5.084;2022-08-04T14:30:22;20.23;;;18.95;;
17566;SDS011;8901;52.088;5.084;2022-08-04T14:32:55;19.88;;;18.45;;
17566;SDS011;8901;52.088;5.084;2022-08-04T14:35:28;19.40;;;18.20;;
17566;SDS011;8901;52.088;5.084;2022-08-04T14:37:57;19.75;;;18.40;;
17566;SDS011;8901;52.088;5.084;2022-08-04T14:40:26;20.13;;;18.77;;
17566;SDS011;8901;52.088;5.084;2022-08-04T14:42:55;19.83;;;18.52;;
17566;SDS011;8901;52.088;5.084;2022-08-04T14:45:29;19.98;;;18.67;;
17566;SDS011;8901;52.088;5.084;2022-08-04T14:47:57;20.27;;;18.98;;
17566;SDS011;8901;52.088;5.084;2022-08-04T14:50:34;19.02;;;17.65;;
17566;SDS011;8901;52.088;5.084;2022-08-04T14:53:03;19.20;;;17.90;;
17566;SDS011;8901;52.088;5.084;2022-08-04T14:55:34;19.48;;;17.88;;
17566;SDS011;8901;52.088;5.084;2022-08-04T14:58:03;18.60;;;17.40;;
17566;SDS011;8901;52.088;5.084;2022-08-04T15:00:31;19.60;;;18.40;;
17566;SDS011;8901;52.088;5.084;2022-08-04T15:03:00;20.63;;;19.33;;
17566;SDS011;8901;52.088;5.084;2022-08-04T15:05:30;21.40;;;19.42;;
17566;SDS011;8901;52.088;5.084;2022-08-04T15:07:59;20.88;;;19.58;;
17566;SDS011;8901;52.088;5.084;2022-08-04T15:10:27;20.60;;;18.90;;
17566;SDS011;8901;52.088;5.084;2022-08-04T15:12:54;21.17;;;19.77;;
17566;SDS011;8901;52.088;5.084;2022-08-04T15:15:22;21.08;;;19.70;;
17566;SDS011;8901;52.088;5.084;2022-08-04T15:17:51;20.42;;;19.05;;
17566;SDS011;8901;52.088;5.084;2022-08-04T15:20:19;22.40;;;20.52;;
17566;SDS011;8901;52.088;5.084;2022-08-04T15:22:48;19.58;;;18.35;;
17566;SDS011;8901;52.088;5.084;2022-08-04T15:25:15;20.80;;;19.50;;
17566;SDS011;8901;52.088;5.084;2022-08-04T15:27:49;19.60;;;18.40;;
17566;SDS011;8901;52.088;5.084;2022-08-04T15:30:18;19.90;;;18.52;;
17566;SDS011;8901;52.088;5.084;2022-08-04T15:32:46;19.90;;;18.50;;
17566;SDS011;8901;52.088;5.084;2022-08-04T15:35:16;20.98;;;19.17;;
17566;SDS011;8901;52.088;5.084;2022-08-04T15:37:51;20.85;;;19.40;;
17566;SDS011;8901;52.088;5.084;2022-08-04T15:40:27;20.10;;;18.80;;
17566;SDS011;8901;52.088;5.084;2022-08-04T15:43:05;19.77;;;18.50;;
17566;SDS011;8901;52.088;5.084;2022-08-04T15:45:47;20.40;;;19.10;;
17566;SDS011;8901;52.088;5.084;2022-08-04T15:56:49;20.77;;;19.23;;
17566;SDS011;8901;52.088;5.084;2022-08-04T16:05:29;21.67;;;20.38;;
17566;SDS011;8901;52.088;5.084;2022-08-04T16:08:10;20.67;;;19.48;;
17566;SDS011;8901;52.088;5.084;2022-08-04T16:10:40;19.65;;;18.40;;
17566;SDS011;8901;52.088;5.084;2022-08-04T16:13:10;18.30;;;17.10;;
17566;SDS011;8901;52.088;5.084;2022-08-04T16:15:39;17.98;;;16.88;;
17566;SDS011;8901;52.088;5.084;2022-08-04T16:18:11;18.75;;;17.30;;
17566;SDS011;8901;52.088;5.084;2022-08-04T16:20:44;19.80;;;18.60;;
17566;SDS011;8901;52.088;5.084;2022-08-04T16:23:22;17.23;;;16.02;;
17566;SDS011;8901;52.088;5.084;2022-08-04T16:26:11;17.13;;;15.93;;